Time;durP1;ratioP1;P1;durP2;ratioP2;P2;SDS_P1;SDS_P2;PMS_P1;PMS_P2;Temp;Humidity;BMP_temperature;BMP_pressure;BME280_temperature;BME280_humidity;BME280_pressure;Samples;Min_cycle;Max_cycle;Signal;HPM_P1;HPM_P2
2021/10/01 00:00:08;;;;;;;0.40;0.40;;;;;;;;;;5030720;28;20022;-44
2021/10/01 00:02:34;;;;;;;1.58;1.48;;;;;;;;;;5030866;28;20030;-43
2021/10/01 00:05:00;;;;;;;0.57;0.57;;;;;;;;;;5030911;28;20013;-44
2021/10/01 00:07:26;;;;;;;1.88;0.60;;;;;;;;;;5030703;28;20105;-44
2021/10/01 00:09:52;;;;;;;1.15;0.80;;;;;;;;;;5030617;28;20136;-43
2021/10/01 00:12:17;;;;;;;4.32;0.73;;;;;;;;;;5030940;28;20120;-43
2021/10/01 00:14:43;;;;;;;1.33;0.75;;;;;;;;;;5030907;28;20486;-44
2021/10/01 00:17:09;;;;;;;0.80;0.60;;;;;;;;;;5030513;28;20044;-44
2021/10/01 00:19:35;;;;;;;1.27;0.60;;;;;;;;;;5030613;28;20017;-44
2021/10/01 00:22:02;;;;;;;0.68;0.40;;;;;;;;;;5030563;28;20443;-44
2021/10/01 00:24:29;;;;;;;0.50;0.50;;;;;;;;;;5031312;28;20416;-44
2021/10/01 00:26:54;;;;;;;1.10;0.80;;;;;;;;;;5034285;28;20103;-45
2021/10/01 00:29:20;;;;;;;0.57;0.55;;;;;;;;;;5034116;28;20456;-44
2021/10/01 00:31:45;;;;;;;0.55;0.52;;;;;;;;;;5034044;28;20433;-44
2021/10/01 00:34:10;;;;;;;2.35;0.98;;;;;;;;;;5033953;28;20026;-44
2021/10/01 00:36:36;;;;;;;3.40;0.77;;;;;;;;;;5049255;28;20045;-44
2021/10/01 00:39:03;;;;;;;1.85;1.00;;;;;;;;;;5032555;28;20025;-44
2021/10/01 00:41:30;;;;;;;0.93;0.60;;;;;;;;;;5033937;28;20037;-44
2021/10/01 00:43:56;;;;;;;1.35;0.85;;;;;;;;;;5033816;28;20422;-45
2021/10/01 00:46:22;;;;;;;2.20;0.60;;;;;;;;;;5033870;28;20059;-44
2021/10/01 00:48:47;;;;;;;7.20;0.85;;;;;;;;;;5034021;28;20025;-45
2021/10/01 00:51:13;;;;;;;0.60;0.60;;;;;;;;;;5033636;28;20025;-44
2021/10/01 00:53:38;;;;;;;0.40;0.40;;;;;;;;;;5032362;28;20071;-44
2021/10/01 00:56:04;;;;;;;0.73;0.60;;;;;;;;;;5032208;28;20053;-44
2021/10/01 00:58:30;;;;;;;0.50;0.50;;;;;;;;;;5032204;28;20372;-44
2021/10/01 01:03:30;;;;;;;0.93;0.50;;;;;;;;;;5033480;28;20025;-43
2021/10/01 01:06:20;;;;;;;2.05;0.75;;;;;;;;;;5032171;28;20018;-43
2021/10/01 01:09:06;;;;;;;1.42;0.57;;;;;;;;;;5033409;28;20495;-44
2021/10/01 01:11:42;;;;;;;2.25;0.82;;;;;;;;;;5033234;28;20041;-44
2021/10/01 01:14:14;;;;;;;0.88;0.50;;;;;;;;;;5031986;28;20033;-43
2021/10/01 01:16:42;;;;;;;0.95;0.60;;;;;;;;;;5033228;28;20519;-44
2021/10/01 01:19:13;;;;;;;0.70;0.60;;;;;;;;;;5032166;28;20083;-43
2021/10/01 01:21:57;;;;;;;1.00;0.65;;;;;;;;;;5031779;28;20029;-44
2021/10/01 01:24:42;;;;;;;0.70;0.57;;;;;;;;;;5015313;28;20378;-43
2021/10/01 01:27:22;;;;;;;0.77;0.77;;;;;;;;;;5028521;28;20096;-44
2021/10/01 01:30:00;;;;;;;1.95;0.38;;;;;;;;;;5028407;28;20034;-44
2021/10/01 01:32:27;;;;;;;0.63;0.50;;;;;;;;;;5028485;28;20041;-44
2021/10/01 01:34:54;;;;;;;0.85;0.80;;;;;;;;;;5013067;28;20025;-43
2021/10/01 01:37:25;;;;;;;1.90;0.55;;;;;;;;;;5028051;28;20034;-44
2021/10/01 01:39:51;;;;;;;0.32;0.32;;;;;;;;;;5028314;28;20032;-44
2021/10/01 01:42:18;;;;;;;1.05;0.55;;;;;;;;;;5028255;28;20061;-44
2021/10/01 01:44:46;;;;;;;0.70;0.47;;;;;;;;;;5028102;28;20029;-43
2021/10/01 01:47:12;;;;;;;1.48;0.50;;;;;;;;;;5013071;28;20111;-44
2021/10/01 01:49:38;;;;;;;0.40;0.40;;;;;;;;;;5028151;28;20084;-44
2021/10/01 01:52:05;;;;;;;1.13;0.50;;;;;;;;;;5011429;28;20026;-44
2021/10/01 01:54:31;;;;;;;0.38;0.38;;;;;;;;;;5028026;28;20077;-44
2021/10/01 01:56:58;;;;;;;0.75;0.75;;;;;;;;;;5027676;28;20044;-43
2021/10/01 01:59:24;;;;;;;1.00;0.50;;;;;;;;;;5027889;28;20044;-44
2021/10/01 02:01:51;;;;;;;1.05;0.32;;;;;;;;;;5027871;28;20026;-44
2021/10/01 02:04:21;;;;;;;3.60;0.60;;;;;;;;;;5027696;28;20026;-43
2021/10/01 02:06:49;;;;;;;0.40;0.30;;;;;;;;;;5011352;28;20017;-44
2021/10/01 02:09:15;;;;;;;0.70;0.70;;;;;;;;;;5027342;28;20037;-43
2021/10/01 02:11:42;;;;;;;0.70;0.70;;;;;;;;;;5027650;28;20037;-44
2021/10/01 02:14:11;;;;;;;1.48;0.50;;;;;;;;;;5027461;28;20037;-44
2021/10/01 02:16:38;;;;;;;0.75;0.47;;;;;;;;;;5011067;28;20041;-45
2021/10/01 02:19:05;;;;;;;0.65;0.65;;;;;;;;;;5027349;28;20030;-44
2021/10/01 02:21:32;;;;;;;0.95;0.52;;;;;;;;;;5012341;28;20029;-44
2021/10/01 02:23:59;;;;;;;0.52;0.50;;;;;;;;;;5010940;28;20080;-44
2021/10/01 02:26:44;;;;;;;1.15;0.60;;;;;;;;;;5027337;28;20037;-44
2021/10/01 02:29:30;;;;;;;1.33;0.60;;;;;;;;;;5027263;28;20030;-44
2021/10/01 02:32:06;;;;;;;0.70;0.43;;;;;;;;;;5027217;28;20087;-44
2021/10/01 02:34:34;;;;;;;0.65;0.65;;;;;;;;;;5027311;28;20497;-44
2021/10/01 02:37:02;;;;;;;1.02;0.60;;;;;;;;;;5010605;28;20037;-44
2021/10/01 02:39:38;;;;;;;3.25;0.73;;;;;;;;;;5027179;28;20033;-44
2021/10/01 02:42:05;;;;;;;0.75;0.50;;;;;;;;;;5011930;28;20033;-44
2021/10/01 02:44:31;;;;;;;0.90;0.73;;;;;;;;;;5027178;28;20633;-44
2021/10/01 02:46:56;;;;;;;1.85;0.50;;;;;;;;;;5011362;28;20027;-44
2021/10/01 02:49:21;;;;;;;1.38;0.75;;;;;;;;;;5026959;28;20018;-45
2021/10/01 02:51:55;;;;;;;0.77;0.35;;;;;;;;;;5026997;28;20041;-43
2021/10/01 02:54:30;;;;;;;2.05;0.77;;;;;;;;;;5010469;28;20029;-44
2021/10/01 02:56:59;;;;;;;1.00;0.35;;;;;;;;;;5010278;28;20048;-44
2021/10/01 02:59:28;;;;;;;1.58;0.60;;;;;;;;;;5012023;28;20038;-44
2021/10/01 03:01:54;;;;;;;0.40;0.32;;;;;;;;;;5026833;28;20030;-44
2021/10/01 03:04:21;;;;;;;0.90;0.65;;;;;;;;;;5011680;28;20041;-43
2021/10/01 03:06:47;;;;;;;0.70;0.55;;;;;;;;;;5026832;28;20040;-44
2021/10/01 03:09:15;;;;;;;1.02;0.60;;;;;;;;;;5026466;28;20029;-44
2021/10/01 03:11:41;;;;;;;5.15;0.60;;;;;;;;;;5026696;28;20040;-44
2021/10/01 03:14:08;;;;;;;0.40;0.40;;;;;;;;;;5011798;28;20427;-44
2021/10/01 03:16:35;;;;;;;0.50;0.40;;;;;;;;;;5026638;28;20765;-44
2021/10/01 03:19:03;;;;;;;0.50;0.47;;;;;;;;;;5026510;28;20476;-44
2021/10/01 03:21:28;;;;;;;1.92;0.57;;;;;;;;;;5026551;28;20404;-44
2021/10/01 03:23:55;;;;;;;1.10;0.77;;;;;;;;;;5026470;28;20018;-44
2021/10/01 03:26:25;;;;;;;0.88;0.52;;;;;;;;;;5026600;28;20029;-44
2021/10/01 03:28:51;;;;;;;1.95;0.40;;;;;;;;;;5010073;28;20018;-44
2021/10/01 03:31:17;;;;;;;4.32;1.25;;;;;;;;;;5026443;28;20037;-44
2021/10/01 03:33:46;;;;;;;0.63;0.47;;;;;;;;;;5026465;28;20018;-44
2021/10/01 03:36:12;;;;;;;0.63;0.55;;;;;;;;;;5026351;28;20076;-44
2021/10/01 03:38:40;;;;;;;1.00;0.65;;;;;;;;;;5009931;28;20396;-44
2021/10/01 03:41:07;;;;;;;0.70;0.60;;;;;;;;;;5026387;28;20026;-43
2021/10/01 03:43:32;;;;;;;2.08;0.70;;;;;;;;;;5011493;28;20030;-44
2021/10/01 03:45:58;;;;;;;2.55;0.70;;;;;;;;;;5009814;28;20496;-45
2021/10/01 03:48:25;;;;;;;3.20;1.15;;;;;;;;;;5026426;28;20076;-44
2021/10/01 03:51:01;;;;;;;1.23;0.70;;;;;;;;;;5026173;28;20092;-44
2021/10/01 03:53:27;;;;;;;1.92;0.40;;;;;;;;;;5026337;28;20116;-44
2021/10/01 03:55:53;;;;;;;1.95;0.60;;;;;;;;;;5026325;28;20060;-44
2021/10/01 03:58:18;;;;;;;0.57;0.57;;;;;;;;;;5026131;28;20540;-44
2021/10/01 04:00:47;;;;;;;1.85;0.68;;;;;;;;;;5029016;28;20026;-44
2021/10/01 04:03:14;;;;;;;1.33;0.70;;;;;;;;;;5030190;28;20048;-44
2021/10/01 04:05:46;;;;;;;1.38;0.57;;;;;;;;;;5030083;28;20026;-44
2021/10/01 04:08:12;;;;;;;2.35;0.45;;;;;;;;;;5029827;28;20088;-44
2021/10/01 04:10:41;;;;;;;1.20;0.73;;;;;;;;;;5029822;28;20140;-44
2021/10/01 04:13:07;;;;;;;0.32;0.32;;;;;;;;;;5029870;28;20121;-43
2021/10/01 04:15:37;;;;;;;2.35;0.60;;;;;;;;;;5013291;28;20049;-44
2021/10/01 04:18:03;;;;;;;1.20;0.50;;;;;;;;;;5013257;28;20400;-44
2021/10/01 04:20:28;;;;;;;3.78;0.60;;;;;;;;;;5013295;28;20219;-44
2021/10/01 04:22:54;;;;;;;1.70;0.30;;;;;;;;;;5029787;28;20112;-43
2021/10/01 04:25:40;;;;;;;0.75;0.75;;;;;;;;;;5014381;28;20088;-43
2021/10/01 04:28:06;;;;;;;3.03;1.17;;;;;;;;;;5029479;28;20034;-44
2021/10/01 04:30:34;;;;;;;0.50;0.40;;;;;;;;;;5013084;28;20022;-44
2021/10/01 04:33:02;;;;;;;0.52;0.43;;;;;;;;;;5013013;28;20156;-43
2021/10/01 04:35:29;;;;;;;1.33;0.70;;;;;;;;;;5029436;28;20160;-44
2021/10/01 04:37:54;;;;;;;0.65;0.60;;;;;;;;;;5014504;28;20120;-43
2021/10/01 04:40:20;;;;;;;0.65;0.40;;;;;;;;;;5029388;28;20095;-44
2021/10/01 04:42:46;;;;;;;0.73;0.55;;;;;;;;;;5029358;28;20034;-43
2021/10/01 04:45:12;;;;;;;4.53;0.40;;;;;;;;;;5012909;28;20021;-43
2021/10/01 04:47:38;;;;;;;0.75;0.52;;;;;;;;;;5014059;28;20045;-44
2021/10/01 04:50:05;;;;;;;0.80;0.70;;;;;;;;;;5029098;28;20108;-43
2021/10/01 04:52:32;;;;;;;0.45;0.40;;;;;;;;;;5029191;28;20037;-44
2021/10/01 04:54:57;;;;;;;1.27;0.60;;;;;;;;;;5029023;28;20503;-44
2021/10/01 04:57:23;;;;;;;0.60;0.50;;;;;;;;;;5013834;28;20028;-45
2021/10/01 05:00:11;;;;;;;0.68;0.57;;;;;;;;;;5015593;28;20453;-44
2021/10/01 05:03:15;;;;;;;0.80;0.70;;;;;;;;;;4991639;28;20034;-43
2021/10/01 05:06:01;;;;;;;2.95;0.40;;;;;;;;;;4991256;28;20041;-43
2021/10/01 05:08:55;;;;;;;0.70;0.40;;;;;;;;;;4972957;28;20078;-43
2021/10/01 05:11:39;;;;;;;0.50;0.50;;;;;;;;;;5013484;28;20112;-43
2021/10/01 05:14:23;;;;;;;0.57;0.50;;;;;;;;;;5013611;28;20444;-43
2021/10/01 05:17:07;;;;;;;4.50;0.63;;;;;;;;;;5013481;28;20405;-44
2021/10/01 05:20:09;;;;;;;0.98;0.40;;;;;;;;;;5010975;28;20048;-44
2021/10/01 05:22:42;;;;;;;0.40;0.40;;;;;;;;;;5009154;28;20061;-44
2021/10/01 05:25:08;;;;;;;0.95;0.63;;;;;;;;;;5028547;28;20570;-44
2021/10/01 05:27:33;;;;;;;0.60;0.47;;;;;;;;;;5028461;28;20022;-43
2021/10/01 05:29:59;;;;;;;0.40;0.30;;;;;;;;;;5013240;28;20030;-44
2021/10/01 05:32:25;;;;;;;1.15;0.60;;;;;;;;;;5028450;28;20121;-44
2021/10/01 05:34:50;;;;;;;0.93;0.70;;;;;;;;;;5028293;28;20092;-43
2021/10/01 05:37:17;;;;;;;2.20;0.50;;;;;;;;;;5028254;28;20590;-44
2021/10/01 05:39:42;;;;;;;1.00;0.40;;;;;;;;;;5013046;28;20040;-45
2021/10/01 05:42:08;;;;;;;0.77;0.77;;;;;;;;;;5028241;28;20098;-44
2021/10/01 05:44:33;;;;;;;0.50;0.50;;;;;;;;;;5013073;28;20492;-43
2021/10/01 05:47:19;;;;;;;1.13;0.55;;;;;;;;;;5012906;28;20033;-44
2021/10/01 05:50:04;;;;;;;0.75;0.60;;;;;;;;;;5013172;28;20064;-44
2021/10/01 05:52:52;;;;;;;0.40;0.40;;;;;;;;;;5013233;28;20115;-45
2021/10/01 05:55:40;;;;;;;0.70;0.70;;;;;;;;;;5012844;28;20483;-43
2021/10/01 05:58:24;;;;;;;1.38;0.47;;;;;;;;;;5012844;28;20543;-44
2021/10/01 06:00:54;;;;;;;1.67;0.50;;;;;;;;;;5027859;28;20038;-44
2021/10/01 06:03:19;;;;;;;1.25;0.77;;;;;;;;;;5012566;28;20018;-44
2021/10/01 06:05:44;;;;;;;1.45;0.70;;;;;;;;;;5012705;28;20112;-43
2021/10/01 06:08:10;;;;;;;0.98;0.35;;;;;;;;;;5012460;28;20109;-43
2021/10/01 06:10:36;;;;;;;0.45;0.40;;;;;;;;;;5012332;28;20150;-48
2021/10/01 06:13:02;;;;;;;0.52;0.43;;;;;;;;;;5012379;28;20033;-44
2021/10/01 06:15:27;;;;;;;1.67;0.80;;;;;;;;;;5012226;28;20038;-43
2021/10/01 06:17:55;;;;;;;0.57;0.50;;;;;;;;;;5027271;28;20045;-44
2021/10/01 06:20:22;;;;;;;0.80;0.40;;;;;;;;;;5012492;28;20105;-44
2021/10/01 06:22:48;;;;;;;7.22;0.75;;;;;;;;;;5011690;28;20124;-43
2021/10/01 06:25:13;;;;;;;2.13;0.60;;;;;;;;;;5012172;28;20129;-43
2021/10/01 06:27:39;;;;;;;0.85;0.70;;;;;;;;;;5012069;28;20105;-43
2021/10/01 06:30:06;;;;;;;0.57;0.50;;;;;;;;;;5012143;28;20026;-44
2021/10/01 06:32:35;;;;;;;1.70;0.60;;;;;;;;;;5012139;28;20021;-43
2021/10/01 06:35:01;;;;;;;1.33;0.70;;;;;;;;;;5012174;28;20429;-43
2021/10/01 06:37:26;;;;;;;4.60;0.55;;;;;;;;;;5010827;28;20072;-44
2021/10/01 06:39:52;;;;;;;2.72;0.80;;;;;;;;;;5012048;28;20037;-43
2021/10/01 06:42:19;;;;;;;0.60;0.60;;;;;;;;;;5011930;28;20034;-43
2021/10/01 06:44:47;;;;;;;4.47;0.80;;;;;;;;;;5011916;28;20084;-44
2021/10/01 06:47:18;;;;;;;0.38;0.30;;;;;;;;;;5012124;28;20056;-44
2021/10/01 06:49:52;;;;;;;1.15;0.50;;;;;;;;;;5011905;28;20121;-43
2021/10/01 07:29:30;;;;;;;0.75;0.40;;;;;;;;;;5011725;28;20018;-44
2021/10/01 08:19:25;;;;;;;0.55;0.40;;;;;;;;;;5014611;28;20042;-43
2021/10/01 08:21:51;;;;;;;0.93;0.40;;;;;;;;;;5014909;28;20061;-43
2021/10/01 08:24:17;;;;;;;0.98;0.47;;;;;;;;;;5014465;28;20018;-43
2021/10/01 08:26:42;;;;;;;0.47;0.32;;;;;;;;;;5014720;28;20040;-43
2021/10/01 08:29:08;;;;;;;2.10;0.32;;;;;;;;;;5014615;28;20021;-44
2021/10/01 08:31:34;;;;;;;2.90;0.40;;;;;;;;;;5014454;28;20029;-44
2021/10/01 08:33:59;;;;;;;0.45;0.45;;;;;;;;;;5014461;28;20017;-43
2021/10/01 08:36:25;;;;;;;1.08;0.45;;;;;;;;;;5014182;28;20045;-43
2021/10/01 08:39:02;;;;;;;0.55;0.40;;;;;;;;;;5014476;28;20435;-43
2021/10/01 08:41:27;;;;;;;0.50;0.22;;;;;;;;;;5014328;28;20034;-44
2021/10/01 08:43:53;;;;;;;0.80;0.50;;;;;;;;;;5014047;28;20380;-44
2021/10/01 08:46:19;;;;;;;0.30;0.30;;;;;;;;;;5013070;28;20034;-43
2021/10/01 08:48:44;;;;;;;0.35;0.30;;;;;;;;;;5014241;28;20097;-44
2021/10/01 08:51:10;;;;;;;1.40;1.30;;;;;;;;;;5014107;28;20350;-44
2021/10/01 08:53:36;;;;;;;0.65;0.35;;;;;;;;;;5014041;28;20013;-44
2021/10/01 08:56:02;;;;;;;0.57;0.57;;;;;;;;;;5012790;28;20096;-44
2021/10/01 08:58:28;;;;;;;1.40;0.63;;;;;;;;;;5013806;28;20017;-43
2021/10/01 09:00:55;;;;;;;0.35;0.30;;;;;;;;;;5013904;28;20088;-42
2021/10/01 09:03:20;;;;;;;1.02;0.80;;;;;;;;;;5013721;28;20050;-43
2021/10/01 09:05:46;;;;;;;0.45;0.25;;;;;;;;;;5013766;28;20069;-44
2021/10/01 09:08:13;;;;;;;0.38;0.30;;;;;;;;;;5013896;28;20045;-44
2021/10/01 09:10:38;;;;;;;1.25;0.30;;;;;;;;;;5013509;28;20503;-44
2021/10/01 09:13:07;;;;;;;1.80;0.50;;;;;;;;;;5013515;28;20112;-44
2021/10/01 09:15:42;;;;;;;1.08;0.35;;;;;;;;;;5028718;28;20132;-44
2021/10/01 09:18:08;;;;;;;0.30;0.30;;;;;;;;;;5013478;28;20037;-44
2021/10/01 09:20:34;;;;;;;0.57;0.50;;;;;;;;;;5028278;28;20103;-44
2021/10/01 09:23:12;;;;;;;0.30;0.30;;;;;;;;;;5028666;28;20030;-44
2021/10/01 09:25:37;;;;;;;0.20;0.20;;;;;;;;;;5013662;28;20045;-44
2021/10/01 09:28:03;;;;;;;0.65;0.63;;;;;;;;;;5013254;28;20026;-44
2021/10/01 09:30:29;;;;;;;0.52;0.28;;;;;;;;;;5013361;28;20519;-44
2021/10/01 09:33:12;;;;;;;2.92;0.30;;;;;;;;;;5013535;28;20112;-44
2021/10/01 09:35:39;;;;;;;0.68;0.30;;;;;;;;;;5013401;28;20486;-44
2021/10/01 09:38:14;;;;;;;1.25;0.47;;;;;;;;;;5013080;28;20022;-44
2021/10/01 09:40:40;;;;;;;2.15;0.30;;;;;;;;;;5013313;28;20037;-44
2021/10/01 09:43:06;;;;;;;0.40;0.40;;;;;;;;;;5013284;28;20060;-44
2021/10/01 09:45:32;;;;;;;0.45;0.25;;;;;;;;;;5012944;28;20389;-44
2021/10/01 09:48:03;;;;;;;0.38;0.20;;;;;;;;;;5012886;28;20025;-45
2021/10/01 09:50:31;;;;;;;0.47;0.40;;;;;;;;;;5013201;28;20038;-43
2021/10/01 09:53:02;;;;;;;1.15;0.30;;;;;;;;;;5013109;28;20022;-44
2021/10/01 09:55:32;;;;;;;0.30;0.30;;;;;;;;;;5012790;28;20038;-44
2021/10/01 09:58:00;;;;;;;0.25;0.25;;;;;;;;;;5012981;28;20041;-44
2021/10/01 10:00:45;;;;;;;1.75;0.30;;;;;;;;;;5012688;28;20429;-45
2021/10/01 10:03:28;;;;;;;0.22;0.22;;;;;;;;;;5012642;28;20033;-43
2021/10/01 10:05:58;;;;;;;2.03;0.27;;;;;;;;;;5011469;28;20030;-43
2021/10/01 10:08:28;;;;;;;1.10;0.55;;;;;;;;;;5012361;28;20038;-44
2021/10/01 10:10:55;;;;;;;1.17;0.40;;;;;;;;;;5012572;28;20061;-44
2021/10/01 10:13:39;;;;;;;0.40;0.30;;;;;;;;;;5012320;28;20040;-44
2021/10/01 10:16:06;;;;;;;1.85;0.30;;;;;;;;;;5012521;28;20049;-44
2021/10/01 10:18:31;;;;;;;0.43;0.40;;;;;;;;;;5011110;28;20465;-44
2021/10/01 10:20:57;;;;;;;0.10;0.10;;;;;;;;;;5012377;28;20034;-44
2021/10/01 10:23:22;;;;;;;6.85;0.43;;;;;;;;;;5027436;28;20042;-44
2021/10/01 10:25:48;;;;;;;0.20;0.20;;;;;;;;;;5012612;28;20072;-44
2021/10/01 10:28:13;;;;;;;1.05;0.50;;;;;;;;;;5012101;28;20076;-44
2021/10/01 10:30:39;;;;;;;0.30;0.30;;;;;;;;;;5012154;28;20061;-44
2021/10/01 10:33:24;;;;;;;0.35;0.35;;;;;;;;;;5012467;28;20033;-44
2021/10/01 10:35:50;;;;;;;1.27;1.00;;;;;;;;;;5011972;28;20042;-44
2021/10/01 10:38:31;;;;;;;0.88;0.25;;;;;;;;;;5012010;28;20380;-44
2021/10/01 10:41:17;;;;;;;0.20;0.20;;;;;;;;;;5012087;28;20380;-44
2021/10/01 10:43:45;;;;;;;1.63;0.50;;;;;;;;;;5011922;28;20066;-44
2021/10/01 10:46:31;;;;;;;1.00;0.35;;;;;;;;;;5012092;28;20381;-44
2021/10/01 10:49:18;;;;;;;0.43;0.40;;;;;;;;;;5011841;28;20030;-44
2021/10/01 10:52:04;;;;;;;0.30;0.30;;;;;;;;;;5011835;28;20026;-44
2021/10/01 10:54:31;;;;;;;0.90;0.30;;;;;;;;;;5012117;28;20033;-44
2021/10/01 10:57:15;;;;;;;0.20;0.20;;;;;;;;;;5011639;28;20547;-44
2021/10/01 10:59:41;;;;;;;0.52;0.40;;;;;;;;;;5011813;28;20045;-44
2021/10/01 11:02:16;;;;;;;1.08;0.43;;;;;;;;;;5011678;28;20013;-44
2021/10/01 11:04:42;;;;;;;0.25;0.22;;;;;;;;;;5011993;28;20055;-44
2021/10/01 11:07:08;;;;;;;0.80;0.30;;;;;;;;;;5011565;28;20373;-44
2021/10/01 11:09:34;;;;;;;0.40;0.40;;;;;;;;;;5011302;28;20056;-44
2021/10/01 11:12:00;;;;;;;1.15;0.82;;;;;;;;;;5011779;28;20038;-44
2021/10/01 11:14:28;;;;;;;1.00;0.15;;;;;;;;;;5011791;28;20402;-44
2021/10/01 11:16:54;;;;;;;0.77;0.40;;;;;;;;;;5011465;28;20690;-45
2021/10/01 11:19:38;;;;;;;0.17;0.17;;;;;;;;;;5011363;28;20117;-44
2021/10/01 11:22:22;;;;;;;0.40;0.20;;;;;;;;;;5011440;28;20496;-44
2021/10/01 11:24:49;;;;;;;1.13;0.30;;;;;;;;;;5011424;28;20029;-44
2021/10/01 11:27:14;;;;;;;0.50;0.17;;;;;;;;;;5010348;28;20076;-44
2021/10/01 11:29:40;;;;;;;1.48;0.28;;;;;;;;;;5011427;28;20030;-44
2021/10/01 11:32:08;;;;;;;1.08;0.40;;;;;;;;;;5011244;28;20109;-44
2021/10/01 11:34:40;;;;;;;1.65;0.30;;;;;;;;;;5011372;28;20436;-44
2021/10/01 11:37:26;;;;;;;0.40;0.40;;;;;;;;;;5011449;28;20033;-44
2021/10/01 11:39:53;;;;;;;0.73;0.50;;;;;;;;;;5011031;28;20394;-43
2021/10/01 11:42:23;;;;;;;0.63;0.25;;;;;;;;;;5026428;28;20030;-44
2021/10/01 11:44:48;;;;;;;0.22;0.15;;;;;;;;;;5011168;28;20077;-44
2021/10/01 11:47:14;;;;;;;0.20;0.20;;;;;;;;;;5011380;28;20469;-44
2021/10/01 11:49:40;;;;;;;0.52;0.22;;;;;;;;;;5011280;28;20072;-44
2021/10/01 11:52:09;;;;;;;1.17;0.40;;;;;;;;;;5011104;28;20018;-44
2021/10/01 11:54:35;;;;;;;0.20;0.20;;;;;;;;;;5011382;28;20026;-44
2021/10/01 11:57:05;;;;;;;0.30;0.30;;;;;;;;;;5011021;28;20030;-44
2021/10/01 11:59:48;;;;;;;1.00;0.60;;;;;;;;;;5011121;28;20112;-44
2021/10/01 12:02:26;;;;;;;0.30;0.30;;;;;;;;;;5011244;28;20358;-45
2021/10/01 12:04:52;;;;;;;0.50;0.30;;;;;;;;;;5011114;28;20018;-44
2021/10/01 12:07:17;;;;;;;0.98;0.30;;;;;;;;;;5011119;28;20045;-44
2021/10/01 12:09:59;;;;;;;0.30;0.30;;;;;;;;;;5011069;28;20175;-44
2021/10/01 12:12:25;;;;;;;0.88;0.35;;;;;;;;;;5026114;28;20488;-44
2021/10/01 12:14:51;;;;;;;0.40;0.38;;;;;;;;;;5026134;28;20045;-44
2021/10/01 12:17:16;;;;;;;0.43;0.40;;;;;;;;;;5010831;28;20041;-44
2021/10/01 12:19:42;;;;;;;1.17;0.47;;;;;;;;;;5011302;28;20028;-44
2021/10/01 12:22:08;;;;;;;0.32;0.32;;;;;;;;;;5014200;28;20131;-44
2021/10/01 12:24:48;;;;;;;0.85;0.45;;;;;;;;;;5014615;28;20022;-47
2021/10/01 12:27:14;;;;;;;0.82;0.40;;;;;;;;;;5014422;28;20045;-43
2021/10/01 12:29:41;;;;;;;1.17;0.40;;;;;;;;;;5014330;28;20471;-44
2021/10/01 12:32:06;;;;;;;0.20;0.20;;;;;;;;;;5014484;28;20030;-44
2021/10/01 12:34:34;;;;;;;0.70;0.32;;;;;;;;;;5014657;28;20432;-44
2021/10/01 12:37:07;;;;;;;0.22;0.20;;;;;;;;;;5014129;28;20045;-46
2021/10/01 12:39:34;;;;;;;0.28;0.28;;;;;;;;;;5014585;28;20026;-44
2021/10/01 12:42:00;;;;;;;3.95;0.30;;;;;;;;;;5014526;28;20368;-43
2021/10/01 12:44:27;;;;;;;0.30;0.30;;;;;;;;;;5014079;28;20030;-44
2021/10/01 12:46:55;;;;;;;0.40;0.40;;;;;;;;;;5014097;28;20049;-44
2021/10/01 12:49:23;;;;;;;0.55;0.40;;;;;;;;;;5014279;28;20032;-44
2021/10/01 12:52:15;;;;;;;0.50;0.50;;;;;;;;;;5013636;28;20056;-44
2021/10/01 12:55:04;;;;;;;;;;;;;;;;;;5029083;28;20053;-44
2021/10/01 12:57:29;;;;;;;0.90;0.40;;;;;;;;;;5013799;28;19925;-44
2021/10/01 12:59:58;;;;;;;1.85;1.40;;;;;;;;;;5013899;28;20026;-44
2021/10/01 13:02:35;;;;;;;0.55;0.30;;;;;;;;;;5013726;28;20052;-44
2021/10/01 13:05:05;;;;;;;0.30;0.30;;;;;;;;;;5013743;28;20472;-44
2021/10/01 13:07:41;;;;;;;0.50;0.40;;;;;;;;;;5013930;28;20057;-44
2021/10/01 13:10:06;;;;;;;1.35;0.43;;;;;;;;;;5013734;28;20137;-44
2021/10/01 13:12:52;;;;;;;0.85;0.63;;;;;;;;;;5028829;28;20124;-44
2021/10/01 13:15:19;;;;;;;0.30;0.30;;;;;;;;;;5013240;28;20128;-44
2021/10/01 13:18:03;;;;;;;0.30;0.30;;;;;;;;;;5013585;28;20022;-44
2021/10/01 13:20:29;;;;;;;0.30;0.20;;;;;;;;;;5013351;28;20033;-44
2021/10/01 13:23:00;;;;;;;0.30;0.30;;;;;;;;;;5013562;28;20101;-44
2021/10/01 13:25:27;;;;;;;0.80;0.40;;;;;;;;;;5013591;28;20480;-44
2021/10/01 13:27:54;;;;;;;0.60;0.40;;;;;;;;;;5013568;28;20045;-44
2021/10/01 13:30:20;;;;;;;0.43;0.30;;;;;;;;;;5013203;28;20473;-44
2021/10/01 13:32:45;;;;;;;0.95;0.52;;;;;;;;;;5012895;28;20515;-44
2021/10/01 13:35:11;;;;;;;0.68;0.40;;;;;;;;;;5013081;28;20069;-44
2021/10/01 13:37:37;;;;;;;2.90;0.50;;;;;;;;;;5013452;28;20128;-44
2021/10/01 13:40:03;;;;;;;0.40;0.40;;;;;;;;;;5013375;28;20381;-44
2021/10/01 13:42:29;;;;;;;0.95;0.70;;;;;;;;;;5013308;28;20049;-45
2021/10/01 13:44:54;;;;;;;0.73;0.73;;;;;;;;;;5013325;28;20483;-44
2021/10/01 13:47:20;;;;;;;0.82;0.65;;;;;;;;;;5012919;28;20461;-44
2021/10/01 13:49:45;;;;;;;0.55;0.50;;;;;;;;;;5013018;28;20029;-44
2021/10/01 13:52:11;;;;;;;0.60;0.35;;;;;;;;;;5012678;28;20018;-44
2021/10/01 13:54:36;;;;;;;2.50;0.65;;;;;;;;;;5013176;28;20124;-44
2021/10/01 13:57:02;;;;;;;0.43;0.35;;;;;;;;;;5012756;28;20033;-44
2021/10/01 13:59:27;;;;;;;0.70;0.40;;;;;;;;;;5012767;28;20464;-44
2021/10/01 14:01:53;;;;;;;0.65;0.45;;;;;;;;;;5028026;28;20022;-43
2021/10/01 14:04:21;;;;;;;0.40;0.40;;;;;;;;;;5012632;28;20080;-44
2021/10/01 14:06:48;;;;;;;0.60;0.60;;;;;;;;;;5012711;28;20018;-46
2021/10/01 14:09:14;;;;;;;1.30;0.80;;;;;;;;;;5012766;28;20044;-44
2021/10/01 14:11:40;;;;;;;0.50;0.50;;;;;;;;;;5012468;28;20128;-44
2021/10/01 14:14:05;;;;;;;0.90;0.70;;;;;;;;;;5012557;28;20560;-44
2021/10/01 14:16:31;;;;;;;0.40;0.40;;;;;;;;;;5011011;28;20038;-45
2021/10/01 14:18:56;;;;;;;0.60;0.40;;;;;;;;;;5012490;28;20030;-44
2021/10/01 14:21:22;;;;;;;0.63;0.52;;;;;;;;;;5012650;28;20018;-44
2021/10/01 14:23:48;;;;;;;0.63;0.50;;;;;;;;;;5012686;28;20076;-45
2021/10/01 14:26:13;;;;;;;0.63;0.50;;;;;;;;;;5012195;28;20175;-44
2021/10/01 14:28:39;;;;;;;1.48;0.68;;;;;;;;;;5012271;28;20079;-45
2021/10/01 14:31:04;;;;;;;0.93;0.60;;;;;;;;;;5010928;28;20227;-45
2021/10/01 14:33:30;;;;;;;0.82;0.60;;;;;;;;;;5011184;28;20030;-44
2021/10/01 14:35:56;;;;;;;1.15;1.05;;;;;;;;;;5012119;28;20022;-44
2021/10/01 14:38:22;;;;;;;1.27;0.65;;;;;;;;;;5012014;28;20045;-44
2021/10/01 14:40:47;;;;;;;1.10;0.70;;;;;;;;;;5012353;28;20022;-45
2021/10/01 14:43:13;;;;;;;1.25;0.85;;;;;;;;;;5011218;28;20033;-44
2021/10/01 14:45:39;;;;;;;2.10;0.60;;;;;;;;;;5011930;28;20032;-44
2021/10/01 14:48:04;;;;;;;0.52;0.50;;;;;;;;;;5011947;28;20037;-45
2021/10/01 14:50:30;;;;;;;0.90;0.70;;;;;;;;;;5011868;28;20037;-44
2021/10/01 14:52:55;;;;;;;1.20;0.85;;;;;;;;;;5012096;28;20022;-45
2021/10/01 14:55:21;;;;;;;0.93;0.80;;;;;;;;;;5011706;28;20362;-44
2021/10/01 14:57:48;;;;;;;1.02;0.90;;;;;;;;;;5011827;28;20405;-44
2021/10/01 15:00:14;;;;;;;1.38;0.70;;;;;;;;;;5011609;28;20029;-44
2021/10/01 15:02:40;;;;;;;0.95;0.60;;;;;;;;;;5011722;28;20087;-44
2021/10/01 15:05:06;;;;;;;0.90;0.60;;;;;;;;;;5011667;28;20022;-44
2021/10/01 15:07:32;;;;;;;0.73;0.60;;;;;;;;;;5011837;28;20037;-44
2021/10/01 15:09:58;;;;;;;0.70;0.52;;;;;;;;;;5011632;28;20037;-44
2021/10/01 15:12:23;;;;;;;3.13;0.70;;;;;;;;;;5011445;28;20125;-44
2021/10/01 15:14:48;;;;;;;4.88;0.40;;;;;;;;;;5011580;28;20025;-44
2021/10/01 15:17:14;;;;;;;2.75;0.77;;;;;;;;;;5011321;28;20113;-44
2021/10/01 15:19:39;;;;;;;0.57;0.52;;;;;;;;;;5011492;28;20034;-43
2021/10/01 15:22:05;;;;;;;0.73;0.60;;;;;;;;;;5011621;28;20037;-44
2021/10/01 15:24:31;;;;;;;4.63;0.65;;;;;;;;;;5011610;28;20696;-44
2021/10/01 15:26:56;;;;;;;1.08;0.98;;;;;;;;;;5010122;28;20152;-46
2021/10/01 15:29:22;;;;;;;2.35;0.50;;;;;;;;;;5013182;28;20057;-45
2021/10/01 15:31:47;;;;;;;1.40;0.68;;;;;;;;;;5031348;28;20057;-43
2021/10/01 15:34:13;;;;;;;1.30;0.68;;;;;;;;;;5031270;28;20021;-44
2021/10/01 15:36:38;;;;;;;0.98;0.68;;;;;;;;;;5031194;28;20045;-44
2021/10/01 15:39:04;;;;;;;5.63;1.00;;;;;;;;;;5031610;28;20041;-44
2021/10/01 15:41:30;;;;;;;5.10;0.70;;;;;;;;;;5031049;28;20574;-44
2021/10/01 15:43:55;;;;;;;1.42;0.90;;;;;;;;;;5031214;28;20024;-44
2021/10/01 15:46:21;;;;;;;1.35;0.73;;;;;;;;;;5031054;28;20025;-44
2021/10/01 15:48:46;;;;;;;1.23;0.90;;;;;;;;;;5031453;28;20388;-44
2021/10/01 15:51:12;;;;;;;0.68;0.52;;;;;;;;;;5031161;28;20045;-44
2021/10/01 15:53:37;;;;;;;1.10;1.00;;;;;;;;;;5031492;28;20544;-44
2021/10/01 15:56:03;;;;;;;2.83;1.08;;;;;;;;;;5034246;28;20116;-44
2021/10/01 15:58:29;;;;;;;1.92;0.80;;;;;;;;;;5033566;28;20029;-44
2021/10/01 16:00:54;;;;;;;2.25;1.00;;;;;;;;;;5035321;28;20032;-45
2021/10/01 16:03:21;;;;;;;0.80;0.68;;;;;;;;;;5034778;28;20021;-44
2021/10/01 16:05:47;;;;;;;1.50;1.05;;;;;;;;;;5034977;28;20029;-44
2021/10/01 16:08:12;;;;;;;2.03;0.90;;;;;;;;;;5034997;28;20075;-44
2021/10/01 16:10:40;;;;;;;2.78;1.10;;;;;;;;;;5034789;28;20496;-44
2021/10/01 16:13:06;;;;;;;6.18;0.88;;;;;;;;;;5035155;28;20040;-44
2021/10/01 16:15:32;;;;;;;3.53;0.98;;;;;;;;;;5034474;28;20079;-45
2021/10/01 16:17:58;;;;;;;1.45;1.13;;;;;;;;;;5034670;28;20018;-44
2021/10/01 16:20:27;;;;;;;5.28;1.38;;;;;;;;;;5034644;28;20057;-44